sensor_id;sensor_type;location;lat;lon;timestamp;pressure;altitude;pressure_sealevel;temperature;humidity
49947;BME280;35839;48.662;13.300;2023-07-13T04:34:19;97196.94;;;39.35;29.88
49947;BME280;35839;48.662;13.300;2023-07-13T04:36:44;97191.63;;;38.48;32.10
49947;BME280;35839;48.662;13.300;2023-07-13T04:39:09;97194.00;;;38.70;31.42
49947;BME280;35839;48.662;13.300;2023-07-13T04:41:35;97203.78;;;38.38;30.99
49947;BME280;35839;48.662;13.300;2023-07-13T04:44:00;97202.53;;;38.69;31.48
49947;BME280;35839;48.662;13.300;2023-07-13T04:46:26;97208.78;;;36.96;33.95
49947;BME280;35839;48.662;13.300;2023-07-13T04:48:51;97196.31;;;37.25;33.74
49947;BME280;35839;48.662;13.300;2023-07-13T04:51:18;97207.13;;;38.02;32.60
49947;BME280;35839;48.662;13.300;2023-07-13T04:53:43;97210.75;;;38.81;31.38
49947;BME280;35839;48.662;13.300;2023-07-13T04:56:08;97214.78;;;38.08;31.89
49947;BME280;35839;48.662;13.300;2023-07-13T04:58:34;97205.78;;;38.50;32.08
49947;BME280;35839;48.662;13.300;2023-07-13T05:01:01;97210.59;;;37.30;33.71
49947;BME280;35839;48.662;13.300;2023-07-13T05:03:27;97203.47;;;37.38;33.78
49947;BME280;35839;48.662;13.300;2023-07-13T05:06:00;97201.50;;;37.56;32.95
49947;BME280;35839;48.662;13.300;2023-07-13T05:08:26;97204.34;;;37.60;33.45
49947;BME280;35839;48.662;13.300;2023-07-13T05:10:52;97209.00;;;35.86;36.03
49947;BME280;35839;48.662;13.300;2023-07-13T05:13:18;97201.34;;;36.58;34.67
49947;BME280;35839;48.662;13.300;2023-07-13T05:15:44;97211.16;;;37.45;33.62
49947;BME280;35839;48.662;13.300;2023-07-13T05:18:09;97211.78;;;36.13;35.66
49947;BME280;35839;48.662;13.300;2023-07-13T05:20:35;97213.81;;;35.90;35.96
49947;BME280;35839;48.662;13.300;2023-07-13T05:23:00;97207.78;;;37.01;34.41
49947;BME280;35839;48.662;13.300;2023-07-13T05:25:25;97219.78;;;36.44;35.15
49947;BME280;35839;48.662;13.300;2023-07-13T05:27:50;97213.13;;;37.36;33.75
49947;BME280;35839;48.662;13.300;2023-07-13T05:30:16;97217.25;;;37.03;34.16
49947;BME280;35839;48.662;13.300;2023-07-13T05:32:41;97231.84;;;37.46;33.57
49947;BME280;35839;48.662;13.300;2023-07-13T05:35:07;97221.16;;;38.00;33.39
49947;BME280;35839;48.662;13.300;2023-07-13T05:37:32;97230.53;;;38.11;32.82
49947;BME280;35839;48.662;13.300;2023-07-13T05:39:57;97240.28;;;38.21;32.65
49947;BME280;35839;48.662;13.300;2023-07-13T05:42:22;97233.31;;;37.05;34.45
49947;BME280;35839;48.662;13.300;2023-07-13T05:44:48;97237.56;;;37.91;32.73
49947;BME280;35839;48.662;13.300;2023-07-13T05:47:13;97234.41;;;37.04;34.24
49947;BME280;35839;48.662;13.300;2023-07-13T05:49:40;97243.25;;;37.48;33.90
49947;BME280;35839;48.662;13.300;2023-07-13T05:52:05;97236.66;;;37.19;34.33
49947;BME280;35839;48.662;13.300;2023-07-13T05:54:31;97235.56;;;37.80;33.23
49947;BME280;35839;48.662;13.300;2023-07-13T05:56:56;97238.28;;;37.03;34.49
49947;BME280;35839;48.662;13.300;2023-07-13T05:59:21;97246.94;;;37.05;34.45
49947;BME280;35839;48.662;13.300;2023-07-13T06:01:47;97238.06;;;36.61;35.08
49947;BME280;35839;48.662;13.300;2023-07-13T06:04:12;97250.19;;;36.89;34.50
49947;BME280;35839;48.662;13.300;2023-07-13T06:06:37;97252.50;;;36.70;35.47
49947;BME280;35839;48.662;13.300;2023-07-13T06:09:03;97250.38;;;35.88;36.81
49947;BME280;35839;48.662;13.300;2023-07-13T06:11:28;97251.72;;;35.20;37.90
49947;BME280;35839;48.662;13.300;2023-07-13T06:13:55;97247.84;;;36.44;35.41
49947;BME280;35839;48.662;13.300;2023-07-13T06:16:21;97252.47;;;35.52;37.90
49947;BME280;35839;48.662;13.300;2023-07-13T06:18:47;97251.72;;;36.61;35.70
49947;BME280;35839;48.662;13.300;2023-07-13T06:21:17;97258.44;;;36.28;36.11
49947;BME280;35839;48.662;13.300;2023-07-13T06:23:44;97255.63;;;34.74;38.98
49947;BME280;35839;48.662;13.300;2023-07-13T06:26:10;97251.81;;;36.90;35.34
49947;BME280;35839;48.662;13.300;2023-07-13T06:28:36;97255.81;;;38.50;32.62
49947;BME280;35839;48.662;13.300;2023-07-13T06:31:05;97262.78;;;37.29;33.71
49947;BME280;35839;48.662;13.300;2023-07-13T06:33:30;97255.38;;;37.29;34.04
49947;BME280;35839;48.662;13.300;2023-07-13T06:35:56;97256.63;;;36.76;35.02
49947;BME280;35839;48.662;13.300;2023-07-13T06:38:21;97260.28;;;37.06;35.04
49947;BME280;35839;48.662;13.300;2023-07-13T06:40:46;97269.38;;;35.62;36.80
49947;BME280;35839;48.662;13.300;2023-07-13T06:43:12;97264.31;;;37.09;34.08
49947;BME280;35839;48.662;13.300;2023-07-13T06:45:43;97278.09;;;34.88;37.76
49947;BME280;35839;48.662;13.300;2023-07-13T06:48:10;97264.97;;;35.44;36.69
49947;BME280;35839;48.662;13.300;2023-07-13T06:50:36;97267.56;;;36.76;34.57
49947;BME280;35839;48.662;13.300;2023-07-13T06:53:01;97271.06;;;36.85;34.34
49947;BME280;35839;48.662;13.300;2023-07-13T06:55:27;97268.81;;;37.43;33.41
49947;BME280;35839;48.662;13.300;2023-07-13T06:57:52;97275.75;;;37.41;33.31
49947;BME280;35839;48.662;13.300;2023-07-13T07:00:17;97282.81;;;36.68;34.67
49947;BME280;35839;48.662;13.300;2023-07-13T07:02:43;97284.50;;;36.03;35.45
49947;BME280;35839;48.662;13.300;2023-07-13T07:05:08;97288.41;;;36.20;34.47
49947;BME280;35839;48.662;13.300;2023-07-13T07:07:33;97286.25;;;35.82;34.99
49947;BME280;35839;48.662;13.300;2023-07-13T07:09:59;97293.19;;;37.10;33.54
49947;BME280;35839;48.662;13.300;2023-07-13T07:12:24;97287.25;;;38.77;31.21
49947;BME280;35839;48.662;13.300;2023-07-13T07:14:49;97285.09;;;37.99;31.51
49947;BME280;35839;48.662;13.300;2023-07-13T07:17:15;97283.59;;;37.81;31.17
49947;BME280;35839;48.662;13.300;2023-07-13T07:19:40;97282.34;;;38.71;29.66
49947;BME280;35839;48.662;13.300;2023-07-13T07:22:06;97289.69;;;36.31;32.13
49947;BME280;35839;48.662;13.300;2023-07-13T07:24:32;97283.78;;;36.81;32.29
49947;BME280;35839;48.662;13.300;2023-07-13T07:26:57;97287.78;;;36.92;32.79
49947;BME280;35839;48.662;13.300;2023-07-13T07:29:22;97278.00;;;36.31;33.29
49947;BME280;35839;48.662;13.300;2023-07-13T07:31:47;97286.25;;;35.42;34.66
49947;BME280;35839;48.662;13.300;2023-07-13T07:34:13;97295.03;;;35.39;34.94
49947;BME280;35839;48.662;13.300;2023-07-13T07:36:38;97294.34;;;34.79;35.04
49947;BME280;35839;48.662;13.300;2023-07-13T07:39:03;97287.97;;;35.78;34.04
49947;BME280;35839;48.662;13.300;2023-07-13T07:41:30;97284.88;;;36.98;32.67
49947;BME280;35839;48.662;13.300;2023-07-13T07:43:55;97287.28;;;38.14;30.49
49947;BME280;35839;48.662;13.300;2023-07-13T07:46:20;97294.69;;;36.64;33.18
49947;BME280;35839;48.662;13.300;2023-07-13T07:48:45;97299.94;;;36.17;33.62
49947;BME280;35839;48.662;13.300;2023-07-13T07:51:11;97291.78;;;36.52;32.93
49947;BME280;35839;48.662;13.300;2023-07-13T07:53:36;97301.69;;;37.64;31.55
49947;BME280;35839;48.662;13.300;2023-07-13T07:56:01;97309.75;;;36.44;32.67
49947;BME280;35839;48.662;13.300;2023-07-13T07:58:26;97309.59;;;36.23;33.55
49947;BME280;35839;48.662;13.300;2023-07-13T08:00:52;97303.00;;;36.24;33.56
49947;BME280;35839;48.662;13.300;2023-07-13T08:03:17;97305.06;;;37.70;31.66
49947;BME280;35839;48.662;13.300;2023-07-13T08:05:42;97305.84;;;38.51;29.88
49947;BME280;35839;48.662;13.300;2023-07-13T08:08:08;97311.13;;;37.28;31.89
49947;BME280;35839;48.662;13.300;2023-07-13T08:10:35;97309.06;;;36.99;31.80
49947;BME280;35839;48.662;13.300;2023-07-13T08:13:02;97318.16;;;38.36;29.70
49947;BME280;35839;48.662;13.300;2023-07-13T08:15:27;97324.66;;;39.07;29.05
49947;BME280;35839;48.662;13.300;2023-07-13T08:17:53;97324.81;;;37.67;30.55
49947;BME280;35839;48.662;13.300;2023-07-13T08:20:18;97329.31;;;36.55;31.30
49947;BME280;35839;48.662;13.300;2023-07-13T08:22:43;97322.44;;;39.21;27.82
49947;BME280;35839;48.662;13.300;2023-07-13T08:25:09;97325.63;;;37.97;29.91
49947;BME280;35839;48.662;13.300;2023-07-13T08:27:34;97331.00;;;35.98;31.73
49947;BME280;35839;48.662;13.300;2023-07-13T08:29:59;97340.75;;;37.94;29.42
49947;BME280;35839;48.662;13.300;2023-07-13T08:32:25;97337.44;;;39.03;27.61
49947;BME280;35839;48.662;13.300;2023-07-13T08:34:51;97339.97;;;38.87;27.93
49947;BME280;35839;48.662;13.300;2023-07-13T08:37:17;97336.59;;;39.35;26.67
49947;BME280;35839;48.662;13.300;2023-07-13T08:39:43;97351.56;;;39.96;26.33
49947;BME280;35839;48.662;13.300;2023-07-13T08:42:22;97352.09;;;39.19;26.56
49947;BME280;35839;48.662;13.300;2023-07-13T08:44:54;97362.97;;;40.63;24.50
49947;BME280;35839;48.662;13.300;2023-07-13T08:47:23;97362.06;;;38.40;26.82
49947;BME280;35839;48.662;13.300;2023-07-13T08:49:49;97361.97;;;38.27;27.21
49947;BME280;35839;48.662;13.300;2023-07-13T08:52:37;97365.75;;;38.65;26.17
49947;BME280;35839;48.662;13.300;2023-07-13T08:55:12;97362.03;;;39.81;25.90
49947;BME280;35839;48.662;13.300;2023-07-13T08:57:39;97366.25;;;41.37;23.97
49947;BME280;35839;48.662;13.300;2023-07-13T09:00:10;97364.97;;;40.91;25.08
49947;BME280;35839;48.662;13.300;2023-07-13T09:02:45;97358.03;;;40.28;25.52
49947;BME280;35839;48.662;13.300;2023-07-13T09:05:22;97361.13;;;40.27;26.02
49947;BME280;35839;48.662;13.300;2023-07-13T09:10:45;97369.66;;;40.50;25.25
49947;BME280;35839;48.662;13.300;2023-07-13T09:13:37;97364.28;;;40.53;24.79
49947;BME280;35839;48.662;13.300;2023-07-13T09:16:04;97371.16;;;38.52;26.82
49947;BME280;35839;48.662;13.300;2023-07-13T09:18:36;97368.34;;;39.82;25.88
49947;BME280;35839;48.662;13.300;2023-07-13T09:21:06;97363.41;;;40.24;24.95
49947;BME280;35839;48.662;13.300;2023-07-13T09:23:34;97379.69;;;39.47;25.72
49947;BME280;35839;48.662;13.300;2023-07-13T09:28:34;97363.66;;;41.28;24.30
49947;BME280;35839;48.662;13.300;2023-07-13T09:31:09;97373.03;;;41.56;23.61
49947;BME280;35839;48.662;13.300;2023-07-13T09:33:37;97381.22;;;40.18;25.56
49947;BME280;35839;48.662;13.300;2023-07-13T09:38:41;97389.88;;;39.71;25.84
49947;BME280;35839;48.662;13.300;2023-07-13T09:41:23;97388.28;;;40.69;24.10
49947;BME280;35839;48.662;13.300;2023-07-13T09:44:37;97385.84;;;40.67;24.17
49947;BME280;35839;48.662;13.300;2023-07-13T09:47:03;97382.09;;;40.72;24.03
49947;BME280;35839;48.662;13.300;2023-07-13T09:49:33;97382.88;;;40.72;23.60
49947;BME280;35839;48.662;13.300;2023-07-13T09:52:03;97387.09;;;40.82;22.11
49947;BME280;35839;48.662;13.300;2023-07-13T09:54:31;97381.41;;;41.03;21.82
49947;BME280;35839;48.662;13.300;2023-07-13T09:56:58;97395.84;;;40.22;23.10
49947;BME280;35839;48.662;13.300;2023-07-13T09:59:29;97393.16;;;40.63;23.31
49947;BME280;35839;48.662;13.300;2023-07-13T10:01:54;97394.91;;;41.68;22.47
49947;BME280;35839;48.662;13.300;2023-07-13T10:04:34;97387.66;;;41.76;22.43
49947;BME280;35839;48.662;13.300;2023-07-13T10:07:12;97390.28;;;42.71;21.27
49947;BME280;35839;48.662;13.300;2023-07-13T10:09:38;97399.41;;;40.88;22.25
49947;BME280;35839;48.662;13.300;2023-07-13T10:12:12;97389.28;;;41.33;21.29
49947;BME280;35839;48.662;13.300;2023-07-13T10:14:39;97390.25;;;42.36;20.81
49947;BME280;35839;48.662;13.300;2023-07-13T10:17:11;97391.50;;;40.99;22.79
49947;BME280;35839;48.662;13.300;2023-07-13T10:19:39;97387.88;;;41.11;22.51
49947;BME280;35839;48.662;13.300;2023-07-13T10:22:32;97387.78;;;42.30;20.65
49947;BME280;35839;48.662;13.300;2023-07-13T10:25:01;97403.41;;;40.13;20.03
49947;BME280;35839;48.662;13.300;2023-07-13T10:27:34;97395.72;;;41.84;20.35
49947;BME280;35839;48.662;13.300;2023-07-13T10:30:20;97399.69;;;42.35;18.38
49947;BME280;35839;48.662;13.300;2023-07-13T10:32:48;97398.41;;;41.81;18.61
49947;BME280;35839;48.662;13.300;2023-07-13T10:35:16;97395.38;;;42.18;19.23
49947;BME280;35839;48.662;13.300;2023-07-13T10:37:52;97408.78;;;41.72;18.63
49947;BME280;35839;48.662;13.300;2023-07-13T10:40:28;97398.50;;;39.49;20.36
49947;BME280;35839;48.662;13.300;2023-07-13T10:42:59;97406.16;;;39.43;20.16
49947;BME280;35839;48.662;13.300;2023-07-13T10:45:26;97400.59;;;38.97;21.20
49947;BME280;35839;48.662;13.300;2023-07-13T10:47:55;97405.16;;;40.83;19.17
49947;BME280;35839;48.662;13.300;2023-07-13T10:50:26;97398.09;;;42.34;18.35
49947;BME280;35839;48.662;13.300;2023-07-13T10:52:54;97391.13;;;41.57;18.81
49947;BME280;35839;48.662;13.300;2023-07-13T10:55:56;97389.84;;;41.38;18.55
49947;BME280;35839;48.662;13.300;2023-07-13T10:58:32;97394.63;;;41.41;18.94
49947;BME280;35839;48.662;13.300;2023-07-13T11:03:55;97401.34;;;40.35;19.98
49947;BME280;35839;48.662;13.300;2023-07-13T11:08:54;97404.47;;;42.38;18.57
49947;BME280;35839;48.662;13.300;2023-07-13T11:18:48;97409.34;;;40.93;19.89
49947;BME280;35839;48.662;13.300;2023-07-13T11:21:19;97417.13;;;38.80;20.36
49947;BME280;35839;48.662;13.300;2023-07-13T11:23:52;97409.13;;;39.38;19.91
49947;BME280;35839;48.662;13.300;2023-07-13T11:26:40;97418.00;;;39.93;20.43
49947;BME280;35839;48.662;13.300;2023-07-13T11:31:55;97406.06;;;40.87;19.05
49947;BME280;35839;48.662;13.300;2023-07-13T11:34:31;97415.34;;;38.84;20.16
49947;BME280;35839;48.662;13.300;2023-07-13T11:36:59;97420.28;;;40.64;19.76
49947;BME280;35839;48.662;13.300;2023-07-13T11:39:33;97419.16;;;42.10;18.08
49947;BME280;35839;48.662;13.300;2023-07-13T11:42:02;97416.94;;;41.40;19.04
49947;BME280;35839;48.662;13.300;2023-07-13T11:44:29;97414.59;;;41.70;19.14
49947;BME280;35839;48.662;13.300;2023-07-13T11:46:58;97415.44;;;41.71;18.48
49947;BME280;35839;48.662;13.300;2023-07-13T11:49:31;97423.66;;;42.50;18.12
49947;BME280;35839;48.662;13.300;2023-07-13T11:51:57;97413.81;;;42.68;17.95
49947;BME280;35839;48.662;13.300;2023-07-13T11:54:43;97411.84;;;41.26;19.23
49947;BME280;35839;48.662;13.300;2023-07-13T11:57:28;97410.03;;;42.57;18.26
49947;BME280;35839;48.662;13.300;2023-07-13T11:59:56;97410.44;;;43.56;17.09
49947;BME280;35839;48.662;13.300;2023-07-13T12:02:28;97415.94;;;43.76;17.76
49947;BME280;35839;48.662;13.300;2023-07-13T12:04:55;97412.31;;;41.28;18.76
49947;BME280;35839;48.662;13.300;2023-07-13T12:07:20;97414.25;;;44.17;16.89
49947;BME280;35839;48.662;13.300;2023-07-13T12:09:46;97406.78;;;44.18;17.34
49947;BME280;35839;48.662;13.300;2023-07-13T12:12:12;97403.53;;;41.98;18.28
49947;BME280;35839;48.662;13.300;2023-07-13T12:14:38;97401.53;;;43.63;17.76
49947;BME280;35839;48.662;13.300;2023-07-13T12:17:10;97394.56;;;45.40;16.28
49947;BME280;35839;48.662;13.300;2023-07-13T12:19:37;97395.06;;;45.15;15.92
49947;BME280;35839;48.662;13.300;2023-07-13T12:22:03;97391.91;;;44.00;16.39
49947;BME280;35839;48.662;13.300;2023-07-13T12:24:28;97379.16;;;43.91;16.86
49947;BME280;35839;48.662;13.300;2023-07-13T12:26:59;97384.81;;;44.52;16.56
49947;BME280;35839;48.662;13.300;2023-07-13T12:29:26;97383.59;;;44.79;16.38
49947;BME280;35839;48.662;13.300;2023-07-13T12:31:51;97374.50;;;45.09;16.61
49947;BME280;35839;48.662;13.300;2023-07-13T12:34:22;97377.28;;;46.54;15.05
49947;BME280;35839;48.662;13.300;2023-07-13T12:36:56;97371.66;;;47.38;14.17
49947;BME280;35839;48.662;13.300;2023-07-13T12:39:35;97376.69;;;45.68;15.35
49947;BME280;35839;48.662;13.300;2023-07-13T12:42:31;97364.78;;;45.60;15.23
49947;BME280;35839;48.662;13.300;2023-07-13T12:45:15;97357.66;;;46.87;14.98
49947;BME280;35839;48.662;13.300;2023-07-13T12:47:43;97369.16;;;45.27;17.16
49947;BME280;35839;48.662;13.300;2023-07-13T12:50:17;97350.13;;;46.08;16.59
49947;BME280;35839;48.662;13.300;2023-07-13T12:52:44;97348.81;;;44.75;16.51
49947;BME280;35839;48.662;13.300;2023-07-13T12:55:17;97348.19;;;45.60;15.94
49947;BME280;35839;48.662;13.300;2023-07-13T12:57:52;97345.75;;;46.03;16.29
49947;BME280;35839;48.662;13.300;2023-07-13T13:00:35;97345.19;;;43.87;17.61
49947;BME280;35839;48.662;13.300;2023-07-13T13:03:06;97339.28;;;44.12;17.28
49947;BME280;35839;48.662;13.300;2023-07-13T13:05:33;97346.22;;;44.86;17.03
49947;BME280;35839;48.662;13.300;2023-07-13T13:07:59;97350.38;;;46.58;16.37
49947;BME280;35839;48.662;13.300;2023-07-13T13:10:25;97344.63;;;46.15;16.48
49947;BME280;35839;48.662;13.300;2023-07-13T13:12:52;97342.41;;;44.10;17.44
49947;BME280;35839;48.662;13.300;2023-07-13T13:15:17;97333.03;;;44.42;16.77
49947;BME280;35839;48.662;13.300;2023-07-13T13:17:43;97333.22;;;47.15;15.55
49947;BME280;35839;48.662;13.300;2023-07-13T13:20:20;97344.31;;;47.36;15.23
49947;BME280;35839;48.662;13.300;2023-07-13T13:22:45;97330.94;;;46.43;15.95
49947;BME280;35839;48.662;13.300;2023-07-13T13:25:12;97321.63;;;46.03;17.05
49947;BME280;35839;48.662;13.300;2023-07-13T13:27:39;97321.50;;;45.89;16.23
49947;BME280;35839;48.662;13.300;2023-07-13T13:30:10;97322.63;;;45.77;15.71
49947;BME280;35839;48.662;13.300;2023-07-13T13:32:35;97327.19;;;42.62;18.49
49947;BME280;35839;48.662;13.300;2023-07-13T13:35:00;97327.19;;;44.50;17.61
49947;BME280;35839;48.662;13.300;2023-07-13T13:37:26;97308.88;;;45.88;16.28
49947;BME280;35839;48.662;13.300;2023-07-13T13:39:51;97323.47;;;43.59;17.80
49947;BME280;35839;48.662;13.300;2023-07-13T13:42:19;97315.28;;;45.10;16.61
49947;BME280;35839;48.662;13.300;2023-07-13T13:44:46;97321.88;;;44.34;17.68
49947;BME280;35839;48.662;13.300;2023-07-13T13:47:25;97326.88;;;47.21;16.82
49947;BME280;35839;48.662;13.300;2023-07-13T13:49:51;97322.66;;;45.81;16.91
49947;BME280;35839;48.662;13.300;2023-07-13T13:52:17;97314.53;;;46.06;15.88
49947;BME280;35839;48.662;13.300;2023-07-13T13:54:43;97316.41;;;46.68;16.41
49947;BME280;35839;48.662;13.300;2023-07-13T13:57:08;97321.78;;;47.52;15.44
49947;BME280;35839;48.662;13.300;2023-07-13T13:59:33;97318.97;;;47.38;15.84
49947;BME280;35839;48.662;13.300;2023-07-13T14:02:19;97305.41;;;44.75;16.95
49947;BME280;35839;48.662;13.300;2023-07-13T14:04:47;97311.59;;;46.51;15.67
49947;BME280;35839;48.662;13.300;2023-07-13T14:07:13;97311.88;;;45.69;16.45
49947;BME280;35839;48.662;13.300;2023-07-13T14:09:38;97313.72;;;43.88;17.47
49947;BME280;35839;48.662;13.300;2023-07-13T14:12:04;97317.13;;;46.51;16.33
49947;BME280;35839;48.662;13.300;2023-07-13T14:14:30;97307.38;;;48.32;15.62
49947;BME280;35839;48.662;13.300;2023-07-13T14:16:57;97307.28;;;48.65;14.14
49947;BME280;35839;48.662;13.300;2023-07-13T14:19:23;97312.19;;;46.12;14.99
49947;BME280;35839;48.662;13.300;2023-07-13T14:21:48;97312.25;;;47.82;14.70
49947;BME280;35839;48.662;13.300;2023-07-13T14:24:14;97317.84;;;46.33;15.23
49947;BME280;35839;48.662;13.300;2023-07-13T14:26:41;97307.91;;;45.66;16.03
49947;BME280;35839;48.662;13.300;2023-07-13T14:29:17;97304.09;;;44.96;16.57
49947;BME280;35839;48.662;13.300;2023-07-13T14:31:44;97302.06;;;45.30;16.34
49947;BME280;35839;48.662;13.300;2023-07-13T14:34:10;97308.06;;;44.65;16.52
49947;BME280;35839;48.662;13.300;2023-07-13T14:36:44;97311.41;;;44.47;16.61
49947;BME280;35839;48.662;13.300;2023-07-13T14:39:13;97311.06;;;46.23;15.27
49947;BME280;35839;48.662;13.300;2023-07-13T14:41:39;97305.50;;;42.61;18.43
49947;BME280;35839;48.662;13.300;2023-07-13T14:44:12;97309.19;;;44.30;16.58
49947;BME280;35839;48.662;13.300;2023-07-13T14:46:38;97312.06;;;43.61;16.52
49947;BME280;35839;48.662;13.300;2023-07-13T14:49:09;97309.41;;;42.79;16.92
49947;BME280;35839;48.662;13.300;2023-07-13T14:51:37;97316.22;;;41.60;17.59
49947;BME280;35839;48.662;13.300;2023-07-13T14:54:05;97317.75;;;43.02;17.06
49947;BME280;35839;48.662;13.300;2023-07-13T14:56:30;97310.66;;;42.62;17.21
49947;BME280;35839;48.662;13.300;2023-07-13T14:58:56;97318.88;;;43.21;16.43
49947;BME280;35839;48.662;13.300;2023-07-13T15:01:22;97317.22;;;43.16;16.90
49947;BME280;35839;48.662;13.300;2023-07-13T15:03:50;97310.94;;;42.02;17.39
49947;BME280;35839;48.662;13.300;2023-07-13T15:06:16;97299.94;;;42.57;16.86
49947;BME280;35839;48.662;13.300;2023-07-13T15:08:42;97302.53;;;42.89;17.58
49947;BME280;35839;48.662;13.300;2023-07-13T15:11:08;97302.09;;;43.06;16.37
49947;BME280;35839;48.662;13.300;2023-07-13T15:13:37;97306.44;;;41.78;17.03
49947;BME280;35839;48.662;13.300;2023-07-13T15:16:03;97307.31;;;41.82;17.88
49947;BME280;35839;48.662;13.300;2023-07-13T15:18:29;97297.34;;;41.94;17.40
49947;BME280;35839;48.662;13.300;2023-07-13T15:20:55;97309.00;;;42.97;16.37
49947;BME280;35839;48.662;13.300;2023-07-13T15:23:22;97308.19;;;42.96;16.49
49947;BME280;35839;48.662;13.300;2023-07-13T15:25:51;97306.88;;;44.05;16.89
49947;BME280;35839;48.662;13.300;2023-07-13T15:28:17;97302.91;;;43.10;16.37
49947;BME280;35839;48.662;13.300;2023-07-13T15:30:47;97312.47;;;43.17;16.17
49947;BME280;35839;48.662;13.300;2023-07-13T15:33:16;97307.41;;;43.19;15.65
49947;BME280;35839;48.662;13.300;2023-07-13T15:35:42;97309.34;;;41.85;16.49
49947;BME280;35839;48.662;13.300;2023-07-13T15:38:18;97301.09;;;42.76;16.68
49947;BME280;35839;48.662;13.300;2023-07-13T15:40:44;97319.44;;;43.30;15.85
49947;BME280;35839;48.662;13.300;2023-07-13T15:43:14;97313.75;;;45.16;14.56
49947;BME280;35839;48.662;13.300;2023-07-13T15:45:40;97315.13;;;44.02;15.60
49947;BME280;35839;48.662;13.300;2023-07-13T15:48:20;97308.66;;;43.21;16.79
49947;BME280;35839;48.662;13.300;2023-07-13T15:50:49;97310.53;;;45.07;15.96
49947;BME280;35839;48.662;13.300;2023-07-13T15:53:23;97320.28;;;45.83;14.20
49947;BME280;35839;48.662;13.300;2023-07-13T15:55:49;97321.69;;;46.18;14.48
49947;BME280;35839;48.662;13.300;2023-07-13T15:58:15;97312.66;;;44.84;14.07
49947;BME280;35839;48.662;13.300;2023-07-13T16:00:41;97318.09;;;43.43;14.36
49947;BME280;35839;48.662;13.300;2023-07-13T16:03:07;97322.28;;;44.36;14.29
49947;BME280;35839;48.662;13.300;2023-07-13T16:05:33;97315.38;;;43.96;14.92
49947;BME280;35839;48.662;13.300;2023-07-13T16:07:59;97319.91;;;43.59;14.99
49947;BME280;35839;48.662;13.300;2023-07-13T16:10:38;97323.53;;;42.58;15.11
49947;BME280;35839;48.662;13.300;2023-07-13T16:13:12;97317.94;;;43.82;15.72
49947;BME280;35839;48.662;13.300;2023-07-13T16:15:39;97315.44;;;44.53;15.34
49947;BME280;35839;48.662;13.300;2023-07-13T16:18:09;97315.59;;;44.68;14.28
49947;BME280;35839;48.662;13.300;2023-07-13T16:20:34;97319.91;;;43.35;14.56
49947;BME280;35839;48.662;13.300;2023-07-13T16:23:00;97331.88;;;42.62;15.99
49947;BME280;35839;48.662;13.300;2023-07-13T16:25:28;97325.75;;;42.88;15.74
49947;BME280;35839;48.662;13.300;2023-07-13T16:27:55;97326.41;;;45.17;14.26
49947;BME280;35839;48.662;13.300;2023-07-13T16:30:26;97333.03;;;44.15;14.88
49947;BME280;35839;48.662;13.300;2023-07-13T16:32:59;97327.59;;;43.03;15.89
49947;BME280;35839;48.662;13.300;2023-07-13T16:35:31;97330.78;;;44.85;15.24
49947;BME280;35839;48.662;13.300;2023-07-13T16:38:03;97339.56;;;44.90;14.91
49947;BME280;35839;48.662;13.300;2023-07-13T16:40:31;97347.25;;;42.82;15.40
49947;BME280;35839;48.662;13.300;2023-07-13T16:42:58;97336.41;;;44.31;15.57
49947;BME280;35839;48.662;13.300;2023-07-13T16:45:27;97337.47;;;44.50;14.58
49947;BME280;35839;48.662;13.300;2023-07-13T16:47:55;97349.66;;;42.84;14.96
49947;BME280;35839;48.662;13.300;2023-07-13T16:50:23;97348.28;;;43.17;15.48
49947;BME280;35839;48.662;13.300;2023-07-13T16:52:50;97348.84;;;42.83;15.87
49947;BME280;35839;48.662;13.300;2023-07-13T16:55:18;97339.56;;;42.91;15.96
49947;BME280;35839;48.662;13.300;2023-07-13T16:57:48;97344.22;;;42.32;16.18
49947;BME280;35839;48.662;13.300;2023-07-13T17:00:22;97353.56;;;42.83;15.95
49947;BME280;35839;48.662;13.300;2023-07-13T17:02:53;97349.50;;;42.57;15.58
49947;BME280;35839;48.662;13.300;2023-07-13T17:05:23;97346.38;;;42.23;16.43
49947;BME280;35839;48.662;13.300;2023-07-13T17:07:49;97361.50;;;42.49;16.39
49947;BME280;35839;48.662;13.300;2023-07-13T17:10:17;97351.66;;;43.06;16.07
49947;BME280;35839;48.662;13.300;2023-07-13T17:12:45;97362.75;;;43.52;16.17
49947;BME280;35839;48.662;13.300;2023-07-13T17:15:11;97354.88;;;44.01;15.47
49947;BME280;35839;48.662;13.300;2023-07-13T17:17:38;97364.78;;;43.13;15.70
49947;BME280;35839;48.662;13.300;2023-07-13T17:20:25;97361.16;;;43.51;15.73
49947;BME280;35839;48.662;13.300;2023-07-13T17:22:53;97362.56;;;42.09;15.89
49947;BME280;35839;48.662;13.300;2023-07-13T17:25:20;97363.66;;;41.13;17.18
49947;BME280;35839;48.662;13.300;2023-07-13T17:27:46;97366.13;;;40.90;16.06
49947;BME280;35839;48.662;13.300;2023-07-13T17:30:19;97368.13;;;42.64;15.20
49947;BME280;35839;48.662;13.300;2023-07-13T17:32:49;97372.03;;;41.48;15.75
49947;BME280;35839;48.662;13.300;2023-07-13T17:35:21;97365.56;;;41.88;15.64
49947;BME280;35839;48.662;13.300;2023-07-13T17:37:48;97368.16;;;40.52;16.68
49947;BME280;35839;48.662;13.300;2023-07-13T17:40:14;97365.75;;;41.63;15.53
49947;BME280;35839;48.662;13.300;2023-07-13T17:42:45;97366.22;;;39.54;16.85
49947;BME280;35839;48.662;13.300;2023-07-13T17:45:11;97371.53;;;40.33;15.63
49947;BME280;35839;48.662;13.300;2023-07-13T17:47:36;97377.47;;;39.98;16.25
49947;BME280;35839;48.662;13.300;2023-07-13T17:50:10;97370.66;;;40.70;15.91
49947;BME280;35839;48.662;13.300;2023-07-13T17:52:37;97373.03;;;39.03;16.59
49947;BME280;35839;48.662;13.300;2023-07-13T17:55:12;97367.50;;;39.81;16.01